Time;durP1;ratioP1;P1;durP2;ratioP2;P2;SDS_P1;SDS_P2;PMS_P1;PMS_P2;Temp;Humidity;BMP_temperature;BMP_pressure;BME280_temperature;BME280_humidity;BME280_pressure;Samples;Min_cycle;Max_cycle;Signal;HPM_P1;HPM_P2
2022/10/14 00:00:40;;;;;;;10.30;7.35;;;13.10;70.80;;;;;;4996915;28;20030;-75
2022/10/14 00:03:07;;;;;;;8.02;7.20;;;13.20;71.00;;;;;;4989690;28;20088;-75
2022/10/14 00:05:38;;;;;;;9.80;8.18;;;13.10;70.90;;;;;;4986191;28;20441;-75
2022/10/14 00:08:04;;;;;;;10.10;7.15;;;13.10;70.90;;;;;;4987832;28;20034;-75
2022/10/14 00:10:30;;;;;;;10.00;7.20;;;13.10;70.90;;;;;;4993983;28;20334;-75
2022/10/14 00:12:56;;;;;;;8.68;6.93;;;13.10;71.00;;;;;;4989074;28;20118;-74
2022/10/14 00:15:22;;;;;;;10.70;7.43;;;13.10;71.00;;;;;;4990805;28;20276;-75
2022/10/14 00:17:48;;;;;;;10.95;7.78;;;13.10;71.10;;;;;;4989707;28;20114;-74
2022/10/14 00:20:14;;;;;;;9.40;7.43;;;13.10;71.10;;;;;;4985299;28;20060;-75
2022/10/14 00:22:40;;;;;;;8.32;6.70;;;13.10;71.20;;;;;;4979640;28;20047;-75
2022/10/14 00:25:06;;;;;;;12.48;7.50;;;13.00;71.00;;;;;;4992643;28;20101;-75
2022/10/14 00:27:32;;;;;;;9.40;7.53;;;13.00;71.10;;;;;;4993384;28;20064;-74
2022/10/14 00:30:00;;;;;;;11.80;7.50;;;13.00;71.10;;;;;;4993048;28;20033;-75
2022/10/14 00:32:27;;;;;;;10.27;6.85;;;13.00;71.20;;;;;;5000902;28;20034;-74
2022/10/14 00:34:54;;;;;;;11.32;7.13;;;13.00;71.20;;;;;;4988245;28;20440;-73
2022/10/14 00:37:20;;;;;;;14.77;8.27;;;13.00;71.30;;;;;;4972592;28;20497;-73
2022/10/14 00:39:46;;;;;;;10.65;7.00;;;13.00;71.40;;;;;;4989649;28;20033;-74
2022/10/14 00:42:14;;;;;;;10.48;7.18;;;13.00;71.40;;;;;;4990605;28;20541;-75
2022/10/14 00:44:43;;;;;;;10.82;6.72;;;13.00;71.50;;;;;;4988926;28;20057;-75
2022/10/14 00:47:09;;;;;;;10.15;7.30;;;13.00;71.50;;;;;;4986809;28;20061;-74
2022/10/14 00:49:43;;;;;;;9.23;6.35;;;13.00;71.60;;;;;;4984643;28;20311;-74
2022/10/14 00:52:18;;;;;;;16.00;7.63;;;13.00;71.60;;;;;;4980528;28;20100;-75
2022/10/14 00:54:49;;;;;;;14.75;6.72;;;13.00;71.70;;;;;;4988174;28;20037;-74
2022/10/14 00:57:16;;;;;;;8.85;6.20;;;12.90;71.50;;;;;;4986035;28;20202;-74
2022/10/14 00:59:43;;;;;;;12.63;7.07;;;13.00;71.70;;;;;;4996505;28;20033;-75
2022/10/14 01:02:09;;;;;;;8.52;6.45;;;13.00;71.70;;;;;;4976906;28;20042;-76
2022/10/14 01:04:39;;;;;;;12.45;7.45;;;12.90;71.60;;;;;;4990419;28;20072;-74
2022/10/14 01:07:31;;;;;;;9.80;6.80;;;12.90;71.70;;;;;;4987114;28;20096;-73
2022/10/14 01:10:08;;;;;;;14.32;6.85;;;12.90;71.80;;;;;;4991323;28;20026;-75
2022/10/14 01:12:46;;;;;;;9.90;6.82;;;12.90;71.80;;;;;;4987473;28;20034;-74
2022/10/14 01:15:34;;;;;;;12.05;6.75;;;12.90;71.80;;;;;;4989094;28;20084;-74
2022/10/14 01:18:33;;;;;;;15.20;6.75;;;13.00;72.10;;;;;;4987237;28;20038;-74
2022/10/14 01:21:24;;;;;;;9.65;7.68;;;12.90;72.00;;;;;;4986613;28;20078;-74
2022/10/14 01:24:24;;;;;;;11.23;6.60;;;12.90;71.90;;;;;;4983535;28;20034;-75
2022/10/14 01:27:09;;;;;;;9.00;5.85;;;13.00;72.20;;;;;;4977962;28;20042;-73
2022/10/14 01:29:45;;;;;;;9.73;5.40;;;12.90;72.00;;;;;;4978677;28;20041;-74
2022/10/14 01:32:20;;;;;;;10.25;5.63;;;12.90;72.10;;;;;;4980606;28;20038;-74
2022/10/14 01:35:15;;;;;;;9.95;5.55;;;12.90;72.10;;;;;;4983788;28;20406;-73
2022/10/14 01:37:51;;;;;;;10.75;6.20;;;12.90;72.20;;;;;;4991914;28;20038;-75
2022/10/14 01:40:42;;;;;;;9.65;5.60;;;13.00;72.40;;;;;;4990669;28;20061;-75
2022/10/14 01:43:12;;;;;;;11.80;6.30;;;12.90;72.30;;;;;;4986495;28;20063;-74
2022/10/14 01:45:41;;;;;;;9.10;5.60;;;13.00;72.50;;;;;;4986803;28;20124;-73
2022/10/14 01:48:12;;;;;;;7.00;5.53;;;12.90;72.40;;;;;;4989268;28;20033;-73
2022/10/14 01:50:42;;;;;;;9.77;5.28;;;12.90;72.40;;;;;;4986551;28;20556;-75
2022/10/14 01:53:13;;;;;;;8.05;4.95;;;13.00;72.70;;;;;;4979923;28;20030;-75
2022/10/14 01:55:44;;;;;;;7.95;5.20;;;12.90;72.60;;;;;;4990803;28;20096;-75
2022/10/14 01:58:13;;;;;;;9.07;5.60;;;13.00;72.80;;;;;;4989490;28;20026;-73
2022/10/14 02:00:39;;;;;;;8.45;5.43;;;13.00;72.80;;;;;;4993342;28;20027;-75
2022/10/14 02:03:06;;;;;;;7.95;5.05;;;13.00;72.90;;;;;;4986010;28;20030;-74
2022/10/14 02:05:47;;;;;;;8.07;5.05;;;13.00;73.00;;;;;;4990656;28;20092;-75
2022/10/14 02:08:28;;;;;;;6.38;4.57;;;13.00;73.10;;;;;;4989360;28;20049;-74
2022/10/14 02:11:11;;;;;;;7.75;4.90;;;13.00;73.00;;;;;;4986764;28;20422;-75
2022/10/14 02:13:49;;;;;;;7.15;4.63;;;13.00;73.00;;;;;;4975166;28;20038;-74
2022/10/14 02:16:37;;;;;;;6.53;4.05;;;13.00;73.10;;;;;;4995080;28;20022;-75
2022/10/14 02:19:37;;;;;;;6.22;5.15;;;13.00;73.20;;;;;;4989894;28;20026;-74
2022/10/14 02:22:16;;;;;;;7.95;4.32;;;13.00;73.20;;;;;;4982364;28;20289;-74
2022/10/14 02:24:50;;;;;;;7.03;4.32;;;13.00;73.10;;;;;;4982334;28;20042;-74
2022/10/14 02:27:18;;;;;;;6.18;3.85;;;13.10;73.40;;;;;;4991260;28;20038;-74
2022/10/14 02:29:46;;;;;;;7.30;3.95;;;13.00;73.80;;;;;;4992337;28;20027;-74
2022/10/14 02:32:15;;;;;;;4.55;4.00;;;13.10;73.50;;;;;;4993103;28;20402;-74
2022/10/14 02:34:46;;;;;;;5.40;4.13;;;13.00;73.40;;;;;;4990073;28;20023;-74
2022/10/14 02:37:15;;;;;;;4.97;3.88;;;13.10;73.60;;;;;;4989004;28;20057;-75
2022/10/14 02:39:48;;;;;;;6.00;4.00;;;13.00;73.50;;;;;;4996307;28;20093;-74
2022/10/14 02:42:14;;;;;;;5.50;4.30;;;13.10;73.70;;;;;;4983679;28;20040;-75
2022/10/14 02:45:00;;;;;;;7.75;4.05;;;13.10;73.70;;;;;;4991028;28;20375;-74
2022/10/14 02:47:26;;;;;;;6.20;4.35;;;13.10;73.90;;;;;;4982405;28;20038;-75
2022/10/14 02:49:53;;;;;;;4.65;3.78;;;13.10;73.80;;;;;;4995339;28;20286;-75
2022/10/14 02:52:19;;;;;;;5.22;3.90;;;13.10;73.90;;;;;;4952605;28;20036;-74
2022/10/14 02:54:45;;;;;;;6.43;3.88;;;13.10;73.90;;;;;;4989960;28;20405;-74
2022/10/14 02:57:11;;;;;;;5.93;3.90;;;13.10;74.00;;;;;;4974591;28;20077;-74
2022/10/14 02:59:38;;;;;;;7.20;4.85;;;13.10;74.00;;;;;;4987862;28;20053;-75
2022/10/14 03:02:06;;;;;;;5.28;4.50;;;13.20;74.30;;;;;;4994161;28;20034;-75
2022/10/14 03:04:33;;;;;;;5.32;4.45;;;13.20;74.30;;;;;;4989599;28;20383;-74
2022/10/14 03:07:00;;;;;;;8.82;5.25;;;13.20;74.30;;;;;;4988941;28;20048;-74
2022/10/14 03:09:26;;;;;;;4.95;4.20;;;13.20;74.40;;;;;;4989970;28;20053;-74
2022/10/14 03:11:53;;;;;;;6.60;4.78;;;13.20;74.40;;;;;;4988657;28;20042;-74
2022/10/14 03:14:22;;;;;;;5.60;4.32;;;13.20;74.40;;;;;;4976629;28;20046;-74
2022/10/14 03:16:48;;;;;;;5.20;3.88;;;13.20;74.50;;;;;;4950698;28;20042;-74
2022/10/14 03:19:20;;;;;;;5.03;4.57;;;13.30;74.70;;;;;;4988219;28;20027;-75
2022/10/14 03:21:50;;;;;;;8.57;4.93;;;13.30;74.70;;;;;;4988779;28;20296;-75
2022/10/14 03:24:18;;;;;;;6.18;4.50;;;13.30;74.80;;;;;;4972616;28;20038;-73
2022/10/14 03:26:48;;;;;;;6.32;5.72;;;13.30;74.70;;;;;;4988897;28;20038;-75
2022/10/14 03:29:19;;;;;;;6.82;5.13;;;13.30;74.80;;;;;;4993435;28;20042;-73
2022/10/14 03:31:55;;;;;;;5.28;4.78;;;13.30;74.80;;;;;;4983824;28;20034;-74
2022/10/14 03:34:41;;;;;;;4.63;4.22;;;13.40;75.00;;;;;;4983474;28;20046;-76
2022/10/14 03:37:14;;;;;;;6.78;4.43;;;13.40;75.00;;;;;;4988661;28;20026;-74
2022/10/14 03:39:46;;;;;;;7.65;4.88;;;13.40;75.00;;;;;;4994612;28;20041;-75
2022/10/14 03:42:13;;;;;;;5.22;4.72;;;13.40;75.00;;;;;;4988436;28;20061;-74
2022/10/14 03:44:45;;;;;;;7.50;4.85;;;13.40;75.10;;;;;;4987480;28;20039;-74
2022/10/14 03:47:22;;;;;;;5.35;4.38;;;13.40;75.10;;;;;;4988740;28;20030;-73
2022/10/14 03:49:48;;;;;;;5.65;4.35;;;13.50;75.30;;;;;;4985601;28;20154;-74
2022/10/14 03:52:22;;;;;;;7.35;5.05;;;13.50;75.30;;;;;;4964732;28;20505;-73
2022/10/14 03:54:59;;;;;;;7.22;4.40;;;13.50;75.30;;;;;;4985480;28;20027;-74
2022/10/14 03:57:26;;;;;;;6.35;4.10;;;13.60;75.50;;;;;;4972350;28;20050;-75
2022/10/14 03:59:54;;;;;;;6.50;4.30;;;13.60;75.50;;;;;;4989935;28;20543;-75
2022/10/14 04:02:26;;;;;;;6.63;5.45;;;13.60;75.50;;;;;;4991578;28;20035;-74
2022/10/14 04:04:55;;;;;;;7.75;4.80;;;13.60;75.50;;;;;;4992706;28;20039;-74
2022/10/14 04:07:22;;;;;;;6.60;4.47;;;13.60;75.50;;;;;;4991840;28;20040;-73
2022/10/14 04:09:55;;;;;;;5.88;4.45;;;13.60;75.50;;;;;;4994610;28;20038;-74
2022/10/14 04:12:21;;;;;;;7.43;4.18;;;13.70;75.70;;;;;;4973005;28;20081;-74
2022/10/14 04:14:58;;;;;;;7.40;4.57;;;13.70;75.60;;;;;;4993293;28;20030;-74
2022/10/14 04:17:25;;;;;;;7.07;5.40;;;13.70;75.60;;;;;;4972451;28;20478;-74
2022/10/14 04:19:52;;;;;;;6.55;4.45;;;13.70;75.60;;;;;;4972497;28;20448;-74
2022/10/14 04:22:19;;;;;;;5.55;3.97;;;13.70;75.60;;;;;;4991554;28;20042;-74
2022/10/14 04:24:50;;;;;;;5.85;4.57;;;13.80;75.70;;;;;;4992718;28;20046;-75
2022/10/14 04:27:17;;;;;;;4.57;4.18;;;13.80;75.70;;;;;;4992139;28;20031;-74
2022/10/14 04:30:01;;;;;;;4.45;4.05;;;13.80;75.70;;;;;;5008696;28;20049;-73
2022/10/14 04:32:38;;;;;;;5.90;4.20;;;13.80;75.70;;;;;;4973435;28;20022;-74
2022/10/14 04:35:06;;;;;;;4.65;3.30;;;13.80;75.70;;;;;;4985788;28;20026;-73
2022/10/14 04:37:32;;;;;;;4.93;3.88;;;13.90;75.90;;;;;;4987897;28;20038;-72
2022/10/14 04:40:11;;;;;;;4.07;3.67;;;13.80;75.80;;;;;;4987849;28;20034;-72
2022/10/14 04:42:44;;;;;;;5.60;4.60;;;13.90;75.90;;;;;;4972764;28;20037;-74
2022/10/14 04:45:19;;;;;;;6.47;3.97;;;13.90;76.00;;;;;;4970104;28;20042;-75
2022/10/14 04:47:52;;;;;;;4.00;3.60;;;13.90;76.00;;;;;;4987608;28;20039;-74
2022/10/14 04:50:21;;;;;;;4.90;4.00;;;13.90;76.00;;;;;;4988518;28;20058;-75
2022/10/14 04:53:07;;;;;;;6.57;4.07;;;14.00;76.10;;;;;;4982524;28;20014;-73
2022/10/14 04:55:38;;;;;;;6.43;3.80;;;14.00;76.10;;;;;;4982100;28;20037;-74
2022/10/14 04:58:04;;;;;;;4.00;3.60;;;14.00;76.10;;;;;;4983896;28;20212;-74
2022/10/14 05:00:37;;;;;;;4.30;3.38;;;14.00;76.20;;;;;;4987530;28;20510;-74
2022/10/14 05:03:22;;;;;;;4.07;3.67;;;14.10;76.30;;;;;;4983425;28;20123;-74
2022/10/14 05:05:51;;;;;;;4.60;3.55;;;14.10;76.30;;;;;;4985825;28;20054;-73
2022/10/14 05:08:19;;;;;;;4.10;3.70;;;14.10;76.30;;;;;;4988266;28;20038;-73
2022/10/14 05:10:51;;;;;;;7.10;4.63;;;14.10;76.30;;;;;;4985357;28;20064;-74
2022/10/14 05:13:31;;;;;;;8.18;4.55;;;14.10;76.30;;;;;;4982991;28;20045;-74
2022/10/14 05:16:02;;;;;;;4.30;3.53;;;14.20;76.40;;;;;;4982599;28;20050;-74
2022/10/14 05:18:28;;;;;;;5.07;3.63;;;14.20;76.90;;;;;;4966611;28;20442;-74
2022/10/14 05:21:01;;;;;;;4.30;3.28;;;14.20;76.30;;;;;;4970017;28;20034;-75
2022/10/14 05:23:42;;;;;;;4.65;3.67;;;14.20;76.30;;;;;;4985462;28;20050;-73
2022/10/14 05:26:10;;;;;;;4.82;4.10;;;14.30;76.40;;;;;;4992472;28;20038;-73
2022/10/14 05:28:37;;;;;;;4.68;3.78;;;14.30;76.50;;;;;;4982171;28;20070;-74
2022/10/14 05:31:05;;;;;;;3.95;3.55;;;14.30;76.40;;;;;;4971228;28;20116;-74
2022/10/14 05:33:38;;;;;;;4.65;3.97;;;14.30;76.40;;;;;;4982650;28;20107;-76
2022/10/14 05:36:06;;;;;;;4.63;3.80;;;14.30;76.30;;;;;;4986972;28;20038;-76
2022/10/14 05:38:34;;;;;;;4.75;3.55;;;14.40;76.60;;;;;;4987392;28;20053;-76
2022/10/14 05:41:01;;;;;;;8.60;4.72;;;14.40;76.90;;;;;;4973580;28;20042;-76
2022/10/14 05:43:27;;;;;;;4.00;3.55;;;14.50;77.30;;;;;;4985278;28;20038;-76
2022/10/14 05:45:53;;;;;;;5.15;4.45;;;14.60;77.60;;;;;;4971525;28;20033;-76
2022/10/14 05:48:20;;;;;;;5.15;4.68;;;14.70;77.70;;;;;;4982815;28;20034;-74
2022/10/14 05:50:47;;;;;;;5.53;3.78;;;14.80;78.20;;;;;;4981565;28;20050;-73
2022/10/14 05:53:16;;;;;;;5.32;3.83;;;14.90;77.80;;;;;;4983287;28;20461;-75
2022/10/14 05:55:47;;;;;;;4.68;4.15;;;14.90;77.70;;;;;;4985517;28;20042;-75
2022/10/14 05:58:13;;;;;;;4.93;4.13;;;14.80;77.40;;;;;;4974099;28;20482;-74
2022/10/14 06:00:42;;;;;;;4.50;4.03;;;14.90;77.60;;;;;;4956840;28;20034;-74
2022/10/14 06:03:12;;;;;;;5.78;3.70;;;14.90;77.60;;;;;;4983705;28;20034;-74
2022/10/14 06:05:39;;;;;;;6.88;4.03;;;14.80;77.30;;;;;;4970515;28;20038;-74
2022/10/14 06:08:07;;;;;;;3.75;3.40;;;14.80;77.40;;;;;;4923654;28;20034;-74
2022/10/14 06:10:36;;;;;;;4.78;4.18;;;14.80;77.30;;;;;;4968929;28;20045;-73
2022/10/14 06:13:05;;;;;;;6.78;4.47;;;14.80;77.20;;;;;;4984015;28;20057;-73
2022/10/14 06:15:35;;;;;;;3.75;3.40;;;14.80;77.20;;;;;;4984860;28;20046;-72
2022/10/14 06:18:01;;;;;;;4.25;3.83;;;14.80;77.10;;;;;;4983979;28;20038;-74
2022/10/14 06:20:28;;;;;;;5.13;4.20;;;14.80;77.10;;;;;;4981854;28;20387;-73
2022/10/14 06:22:55;;;;;;;6.25;4.38;;;14.80;77.00;;;;;;4986410;28;20442;-72
2022/10/14 06:25:22;;;;;;;4.53;3.55;;;14.80;77.00;;;;;;4978084;28;20049;-72
2022/10/14 06:27:48;;;;;;;4.63;3.88;;;14.80;77.00;;;;;;4985926;28;20092;-74
2022/10/14 06:30:14;;;;;;;5.90;4.00;;;14.70;76.70;;;;;;4991747;28;20038;-73
2022/10/14 06:32:40;;;;;;;4.15;3.80;;;14.70;76.70;;;;;;4970132;28;20054;-74
2022/10/14 06:35:07;;;;;;;4.35;3.95;;;14.70;76.70;;;;;;4984611;28;20125;-74
2022/10/14 06:37:33;;;;;;;5.75;4.38;;;14.70;76.60;;;;;;4986103;28;20045;-72
2022/10/14 06:40:00;;;;;;;4.43;3.42;;;14.70;76.60;;;;;;4967018;28;20035;-74
2022/10/14 06:42:26;;;;;;;4.65;3.80;;;14.70;76.60;;;;;;4984877;28;20069;-75
2022/10/14 06:44:52;;;;;;;3.50;3.20;;;14.70;76.60;;;;;;4987103;28;20049;-73
2022/10/14 06:47:18;;;;;;;4.35;3.63;;;14.70;76.50;;;;;;4989987;28;20549;-72
2022/10/14 06:49:45;;;;;;;4.53;4.10;;;14.70;76.50;;;;;;4983624;28;20547;-74
2022/10/14 06:52:13;;;;;;;4.68;3.33;;;14.70;76.50;;;;;;4993478;28;20023;-73
2022/10/14 06:54:38;;;;;;;4.07;3.63;;;14.70;76.40;;;;;;4987666;28;20030;-74
2022/10/14 06:57:05;;;;;;;3.72;3.42;;;14.70;76.40;;;;;;4983204;28;20213;-73
2022/10/14 06:59:31;;;;;;;4.20;3.80;;;14.70;76.40;;;;;;4990171;28;20398;-73
2022/10/14 07:01:56;;;;;;;4.63;4.22;;;14.70;76.30;;;;;;4987300;28;20376;-73
2022/10/14 07:04:22;;;;;;;4.72;3.75;;;14.70;76.30;;;;;;4970527;28;20042;-71
2022/10/14 07:06:48;;;;;;;5.75;3.53;;;14.70;76.20;;;;;;4988490;28;20026;-73
2022/10/14 07:09:14;;;;;;;4.30;3.72;;;14.70;76.20;;;;;;4994944;28;20053;-72
2022/10/14 07:11:41;;;;;;;3.58;3.28;;;14.70;76.10;;;;;;4983841;28;20046;-73
2022/10/14 07:14:08;;;;;;;3.50;3.20;;;14.70;76.10;;;;;;4986444;28;20034;-74
2022/10/14 07:16:34;;;;;;;4.40;3.65;;;14.70;76.10;;;;;;4969947;28;20035;-73
2022/10/14 07:19:00;;;;;;;3.72;3.33;;;14.70;76.00;;;;;;4984650;28;20069;-73
2022/10/14 07:21:27;;;;;;;5.47;3.60;;;14.70;76.00;;;;;;4984726;28;20290;-75
2022/10/14 07:23:54;;;;;;;6.63;3.72;;;14.70;76.00;;;;;;4984998;28;20046;-74
2022/10/14 07:26:20;;;;;;;4.50;4.07;;;14.70;75.90;;;;;;4986306;28;20031;-74
2022/10/14 07:28:46;;;;;;;5.53;3.72;;;14.80;76.10;;;;;;4988835;28;20373;-73
2022/10/14 07:31:12;;;;;;;5.47;4.00;;;14.80;76.00;;;;;;4980781;28;20041;-73
2022/10/14 07:33:40;;;;;;;3.83;3.45;;;14.80;75.90;;;;;;4975318;28;20034;-74
2022/10/14 07:36:16;;;;;;;4.57;4.18;;;14.80;75.80;;;;;;4985710;28;20034;-73
2022/10/14 07:38:42;;;;;;;4.05;3.72;;;14.80;75.80;;;;;;4994043;28;20026;-74
2022/10/14 07:41:15;;;;;;;5.22;3.95;;;14.90;75.90;;;;;;4990489;28;20093;-74
2022/10/14 07:43:44;;;;;;;5.75;4.13;;;14.90;75.80;;;;;;4984624;28;20470;-73
2022/10/14 07:46:11;;;;;;;5.10;3.85;;;14.90;75.80;;;;;;4989217;28;20492;-76
2022/10/14 07:48:38;;;;;;;5.03;3.78;;;14.90;75.70;;;;;;4989491;28;20494;-75
2022/10/14 07:51:06;;;;;;;4.70;4.30;;;14.90;75.70;;;;;;4986428;28;20056;-74
2022/10/14 07:53:32;;;;;;;4.32;3.90;;;15.00;75.90;;;;;;4986752;28;20475;-74
2022/10/14 07:55:58;;;;;;;4.38;3.90;;;15.00;76.50;;;;;;4990866;28;20022;-74
2022/10/14 07:58:29;;;;;;;6.28;4.43;;;15.00;76.00;;;;;;4989750;28;20083;-75
2022/10/14 08:00:56;;;;;;;5.85;4.15;;;15.10;76.20;;;;;;4989192;28;20040;-74
2022/10/14 08:03:23;;;;;;;6.18;3.85;;;15.10;76.20;;;;;;4986904;28;20084;-74
2022/10/14 08:05:56;;;;;;;5.55;4.45;;;15.10;76.20;;;;;;4980914;28;20034;-73
2022/10/14 08:08:23;;;;;;;;;;;15.10;76.20;;;;;;4986827;28;20035;-71
2022/10/14 08:10:49;;;;;;;7.30;4.80;;;15.20;76.30;;;;;;4982523;28;19917;-73
2022/10/14 08:13:15;;;;;;;5.72;4.03;;;15.10;76.10;;;;;;4990509;28;20030;-74
2022/10/14 08:15:42;;;;;;;5.13;3.15;;;15.20;76.30;;;;;;4985303;28;20043;-73
2022/10/14 08:18:09;;;;;;;4.35;3.42;;;15.20;76.30;;;;;;4991428;28;20732;-73
2022/10/14 08:20:35;;;;;;;4.82;3.20;;;15.30;76.60;;;;;;4984649;28;20045;-74
2022/10/14 08:23:01;;;;;;;3.65;2.63;;;15.30;76.50;;;;;;4984975;28;20476;-73
2022/10/14 08:25:32;;;;;;;3.42;2.67;;;15.30;76.60;;;;;;4983678;28;20046;-73
2022/10/14 08:27:59;;;;;;;3.83;2.42;;;15.30;76.60;;;;;;4988043;28;20065;-74
2022/10/14 08:30:25;;;;;;;2.53;1.80;;;15.30;76.60;;;;;;4987828;28;20030;-75
2022/10/14 08:32:51;;;;;;;4.25;2.38;;;15.40;76.80;;;;;;4961839;28;20035;-74
2022/10/14 08:35:18;;;;;;;4.93;2.10;;;15.40;76.90;;;;;;4989225;28;20034;-74
2022/10/14 08:38:00;;;;;;;2.35;2.13;;;15.40;77.00;;;;;;4987952;28;20088;-75
2022/10/14 08:40:32;;;;;;;3.58;2.13;;;15.50;77.20;;;;;;4986723;28;20243;-73
2022/10/14 08:43:15;;;;;;;3.15;1.95;;;15.50;77.00;;;;;;4981547;28;20061;-72
2022/10/14 08:45:44;;;;;;;;;;;15.50;77.00;;;;;;4989784;28;20389;-71
2022/10/14 08:48:17;;;;;;;3.70;2.05;;;15.50;76.90;;;;;;4987489;28;19917;-73
2022/10/14 08:51:02;;;;;;;3.42;2.03;;;15.50;76.80;;;;;;4979381;28;20565;-73
2022/10/14 08:53:35;;;;;;;3.60;1.98;;;15.50;76.80;;;;;;4986067;28;20023;-74
2022/10/14 08:56:03;;;;;;;3.35;1.60;;;15.50;76.80;;;;;;4989717;28;20037;-73
2022/10/14 08:58:49;;;;;;;3.20;1.88;;;15.50;76.70;;;;;;4986860;28;20045;-74
2022/10/14 09:01:31;;;;;;;3.38;1.67;;;15.60;76.90;;;;;;4981293;28;20042;-71
2022/10/14 09:04:01;;;;;;;4.38;1.73;;;15.60;76.80;;;;;;4977055;28;20514;-73
2022/10/14 09:06:32;;;;;;;1.92;1.48;;;15.60;76.60;;;;;;4986032;28;20026;-73
2022/10/14 09:09:38;;;;;;;2.60;1.30;;;15.60;76.50;;;;;;4986648;28;20482;-74
2022/10/14 09:12:10;;;;;;;2.03;1.50;;;15.60;76.40;;;;;;4983053;28;20038;-74
2022/10/14 09:14:41;;;;;;;2.22;1.00;;;15.70;76.50;;;;;;4983445;28;20026;-72
2022/10/14 09:17:16;;;;;;;1.40;1.00;;;15.70;76.40;;;;;;4987859;28;20487;-73
2022/10/14 09:20:00;;;;;;;1.20;1.05;;;15.70;76.30;;;;;;4986153;28;20157;-73
2022/10/14 09:22:27;;;;;;;1.98;1.30;;;15.80;76.40;;;;;;4979751;28;20049;-73
2022/10/14 09:24:53;;;;;;;2.25;1.33;;;15.80;76.30;;;;;;4988662;28;20093;-73
2022/10/14 09:27:21;;;;;;;3.50;1.73;;;15.90;76.30;;;;;;4988833;28;20057;-73
2022/10/14 09:29:56;;;;;;;2.60;1.23;;;15.90;76.20;;;;;;4990716;28;20438;-73
2022/10/14 09:32:30;;;;;;;1.75;1.50;;;15.90;76.10;;;;;;4993991;28;20033;-74
2022/10/14 09:34:57;;;;;;;1.63;1.40;;;15.90;76.10;;;;;;4988806;28;20099;-73
2022/10/14 09:37:31;;;;;;;2.72;1.48;;;15.90;76.00;;;;;;4988257;28;20045;-70
2022/10/14 09:40:12;;;;;;;2.75;1.38;;;16.00;76.10;;;;;;4989234;28;20030;-73
2022/10/14 09:43:07;;;;;;;2.72;1.48;;;16.00;76.10;;;;;;4982232;28;20040;-73
2022/10/14 09:45:48;;;;;;;2.85;1.27;;;16.10;76.10;;;;;;4977452;28;20045;-73
2022/10/14 09:48:20;;;;;;;4.35;1.63;;;16.20;76.00;;;;;;4989870;28;20030;-73
2022/10/14 09:50:52;;;;;;;1.73;1.35;;;16.20;75.90;;;;;;4984136;28;20056;-74
2022/10/14 09:53:51;;;;;;;1.90;1.20;;;16.30;75.90;;;;;;4982436;28;20043;-73
2022/10/14 09:56:27;;;;;;;1.65;1.10;;;16.30;75.70;;;;;;4984432;28;20559;-72
2022/10/14 09:58:56;;;;;;;2.33;1.20;;;16.40;75.70;;;;;;4984627;28;20026;-73
2022/10/14 10:01:24;;;;;;;1.90;1.20;;;16.40;75.50;;;;;;4989539;28;20030;-74
2022/10/14 10:03:51;;;;;;;1.70;1.13;;;16.50;75.70;;;;;;4986420;28;20080;-73
2022/10/14 10:06:22;;;;;;;3.20;1.00;;;16.50;75.60;;;;;;4985258;28;20035;-73
2022/10/14 10:08:58;;;;;;;1.63;1.17;;;16.50;75.50;;;;;;4980962;28;20030;-73
2022/10/14 10:11:34;;;;;;;2.55;0.95;;;16.40;75.40;;;;;;4979716;28;20759;-74
2022/10/14 10:14:15;;;;;;;1.33;0.90;;;16.50;75.60;;;;;;4961827;28;20121;-74
2022/10/14 10:16:42;;;;;;;1.70;1.20;;;16.50;75.50;;;;;;4986151;28;20115;-73
2022/10/14 10:19:28;;;;;;;1.90;1.40;;;16.60;75.50;;;;;;5003791;28;20030;-74
2022/10/14 10:22:13;;;;;;;2.47;1.73;;;16.60;75.40;;;;;;4979470;28;20030;-74
2022/10/14 10:24:39;;;;;;;1.15;0.85;;;16.60;75.30;;;;;;4975527;28;20053;-73
2022/10/14 10:27:23;;;;;;;2.33;1.10;;;16.70;75.40;;;;;;4982863;28;20034;-73
2022/10/14 10:29:49;;;;;;;2.03;1.30;;;16.70;75.30;;;;;;4983755;28;20046;-72
2022/10/14 10:32:31;;;;;;;1.50;0.93;;;16.90;75.40;;;;;;4988516;28;20088;-73
2022/10/14 10:35:17;;;;;;;1.13;0.93;;;17.00;75.30;;;;;;4985478;28;20115;-73
2022/10/14 10:38:04;;;;;;;1.88;1.00;;;17.10;75.20;;;;;;4971823;28;20046;-72
2022/10/14 10:41:08;;;;;;;1.95;0.80;;;17.20;74.90;;;;;;4988106;28;20319;-73
2022/10/14 10:43:56;;;;;;;2.00;0.90;;;17.30;74.90;;;;;;4996676;28;20046;-74
2022/10/14 10:46:36;;;;;;;1.17;0.82;;;17.50;74.90;;;;;;4987198;28;20022;-73
2022/10/14 10:49:15;;;;;;;1.45;1.33;;;17.60;74.70;;;;;;4983183;28;20046;-74
2022/10/14 10:51:57;;;;;;;2.15;1.00;;;17.70;74.60;;;;;;4983672;28;20033;-73
2022/10/14 10:55:00;;;;;;;2.95;1.40;;;17.80;74.60;;;;;;4981144;28;20034;-73
2022/10/14 10:57:33;;;;;;;;;;;18.00;74.60;;;;;;4981650;28;20116;-74
2022/10/14 11:00:11;;;;;;;1.38;1.20;;;18.10;74.50;;;;;;4991297;28;19909;-74
2022/10/14 11:02:49;;;;;;;1.48;1.02;;;18.20;74.50;;;;;;4967979;28;20044;-74
2022/10/14 11:05:18;;;;;;;1.30;1.10;;;18.30;74.40;;;;;;4976239;28;20053;-74
2022/10/14 11:14:37;;;;;;;1.52;1.10;;;18.70;74.10;;;;;;4990010;28;20038;-73
2022/10/14 11:17:16;;;;;;;1.73;1.10;;;18.80;73.90;;;;;;4983135;28;20341;-73
2022/10/14 11:19:57;;;;;;;1.30;1.10;;;18.80;73.80;;;;;;4982598;28;20034;-72
2022/10/14 11:22:43;;;;;;;1.38;0.90;;;18.90;73.90;;;;;;4985108;28;20030;-72
2022/10/14 11:25:39;;;;;;;2.20;1.70;;;18.90;73.70;;;;;;5004893;28;20057;-72
2022/10/14 11:28:24;;;;;;;5.28;1.92;;;19.00;73.70;;;;;;4985992;28;20054;-72
2022/10/14 11:31:11;;;;;;;2.42;1.27;;;19.10;73.50;;;;;;4966144;28;20042;-72
2022/10/14 11:34:08;;;;;;;3.13;1.00;;;19.10;73.30;;;;;;4993513;28;20441;-73
2022/10/14 11:37:14;;;;;;;2.38;1.08;;;19.10;73.20;;;;;;4989140;28;20478;-71
2022/10/14 11:40:07;;;;;;;1.40;1.20;;;19.10;73.20;;;;;;4985902;28;20639;-74
2022/10/14 11:42:42;;;;;;;2.60;1.95;;;19.10;73.20;;;;;;4985329;28;20476;-72
2022/10/14 11:45:38;;;;;;;2.80;1.40;;;19.00;73.20;;;;;;5000916;28;20473;-72
2022/10/14 11:48:21;;;;;;;2.72;1.20;;;19.00;73.10;;;;;;4988999;28;20224;-76
2022/10/14 11:50:53;;;;;;;1.45;1.17;;;19.00;73.10;;;;;;4980063;28;20053;-73
2022/10/14 11:53:26;;;;;;;2.05;1.20;;;19.00;72.90;;;;;;4989793;28;20101;-73
2022/10/14 11:56:10;;;;;;;2.17;1.40;;;19.10;72.90;;;;;;4989122;28;20029;-75
2022/10/14 11:58:38;;;;;;;1.70;1.20;;;19.10;72.70;;;;;;4991004;28;20027;-74
2022/10/14 12:01:06;;;;;;;3.22;2.00;;;19.10;72.60;;;;;;4990730;28;20045;-74
2022/10/14 12:04:18;;;;;;;3.63;1.77;;;19.10;72.50;;;;;;4980547;28;20035;-72
2022/10/14 12:06:54;;;;;;;2.15;1.40;;;19.20;72.50;;;;;;4966137;28;20454;-72
2022/10/14 12:09:56;;;;;;;4.35;1.10;;;19.20;72.50;;;;;;4983034;28;20022;-73
2022/10/14 12:12:27;;;;;;;2.78;1.70;;;19.30;72.30;;;;;;4990587;28;20034;-73
2022/10/14 12:15:06;;;;;;;5.10;1.38;;;19.40;72.40;;;;;;4986033;28;20065;-72
2022/10/14 12:17:51;;;;;;;1.63;0.90;;;19.40;72.20;;;;;;5000627;28;20500;-74
2022/10/14 12:20:38;;;;;;;2.15;0.95;;;19.50;72.20;;;;;;4990070;28;20064;-73
2022/10/14 12:23:09;;;;;;;2.30;1.20;;;19.60;72.20;;;;;;4981393;28;20031;-72
2022/10/14 12:25:54;;;;;;;3.85;1.17;;;19.60;72.00;;;;;;5004622;28;20049;-72
2022/10/14 12:28:21;;;;;;;2.45;1.30;;;19.70;72.00;;;;;;4990565;28;20030;-76
2022/10/14 12:30:50;;;;;;;2.08;1.10;;;19.80;72.20;;;;;;4993746;28;20038;-76
2022/10/14 12:33:16;;;;;;;4.25;1.25;;;19.80;72.00;;;;;;4989167;28;20389;-75
2022/10/14 12:35:49;;;;;;;3.00;1.20;;;20.00;72.00;;;;;;4994895;28;20022;-77
2022/10/14 12:38:17;;;;;;;4.15;1.20;;;20.10;71.70;;;;;;4997284;28;20027;-73
2022/10/14 12:40:43;;;;;;;2.70;1.25;;;20.30;71.60;;;;;;4989914;28;20101;-73
2022/10/14 12:43:24;;;;;;;2.50;1.02;;;20.40;71.50;;;;;;4989180;28;20044;-74
2022/10/14 12:46:01;;;;;;;3.83;1.17;;;20.40;71.10;;;;;;4976549;28;20328;-71
2022/10/14 12:48:33;;;;;;;3.17;0.90;;;20.50;71.10;;;;;;4986513;28;20026;-74
2022/10/14 12:51:13;;;;;;;2.95;1.30;;;20.50;70.80;;;;;;4991718;28;20050;-74
2022/10/14 12:53:50;;;;;;;6.55;1.75;;;20.60;70.80;;;;;;4985805;28;20034;-74
2022/10/14 12:56:29;;;;;;;3.05;1.55;;;20.70;70.90;;;;;;4988141;28;20097;-74
2022/10/14 12:59:06;;;;;;;2.38;0.80;;;20.80;70.70;;;;;;4986576;28;20025;-74
2022/10/14 13:01:36;;;;;;;1.65;0.82;;;20.80;70.50;;;;;;4988457;28;20033;-75
2022/10/14 13:04:17;;;;;;;2.78;1.10;;;20.90;70.50;;;;;;4987180;28;20064;-73
2022/10/14 13:07:16;;;;;;;2.45;1.00;;;21.00;70.50;;;;;;4989762;28;20034;-74
2022/10/14 13:09:45;;;;;;;3.72;1.10;;;21.10;70.40;;;;;;4986399;28;20384;-75
2022/10/14 13:12:20;;;;;;;3.78;1.23;;;21.10;70.30;;;;;;4988762;28;20033;-75
2022/10/14 13:14:59;;;;;;;1.92;0.63;;;21.20;70.10;;;;;;4988443;28;20034;-73
2022/10/14 13:17:45;;;;;;;1.75;0.70;;;21.40;70.00;;;;;;4983997;28;20034;-73
2022/10/14 13:20:33;;;;;;;3.30;1.17;;;21.50;69.70;;;;;;4989363;28;20086;-76
2022/10/14 13:23:20;;;;;;;3.15;1.10;;;21.60;69.60;;;;;;4982968;28;20038;-74
2022/10/14 13:25:50;;;;;;;4.20;0.60;;;21.70;69.60;;;;;;4990381;28;20095;-74